Huntsville, Indiana
Current Conditions -  °F | °C
As of 12:15 PM on Thursday 27 Nov 2014 (Local Time) from KMQJ Reporting Station
Overcast Overcast  
Wind Chill: 20°   Ceiling: 600
Heat Index: 30°   Visibility: 2.5mi
Dew Point: 23°   Wind: 14mph
Humidity: 75%   Direction: 300°WNW
Pressure: 30.3"   Gusts: NA
Location:  39.98°N, 85.7739°W
Report Text: KMQJ 271715Z AUTO 30012KT 2 1/2SM BKN006 OVC012 M01/M05 A3030 RMK AO1
Loading
Personal Weather Stations






























Interactive Weather Map New forecast layout! Learn more

10-Day Weather Forecast

Advertisements
Track Severe Weather on mobile